• Join FlightAware (Why Join?)
  • Login
  • US Flag 
12:29PM EST


 

Airport Tracker/Info


-or-


 

Live Flight TrackerFlight Track Log ✈ XOJ760 ✈ 06-Oct-2013 ✈ KAPC - KTEB

Flight Track Log - Related Links

Times and Time Zones

All times are in EDT time to prevent confusion due to time zone crossing. See the XOJ760 flight status page for this flight to view local times or setup timezone preferences in your user account.

Time Position Orientation Groundspeed Altitude Reporting Facility
EDT Latitude Longitude Course Direction KTS MPH feet Rate Location/Type
03:57PM 38.1914 -122.2997 55° Northeast 188 216 1,100  Level Oakland Center
03:58PM 38.1967 -122.3722 275° West 227 261 3,600 2,580 Climbing Oakland Center
03:59PM 38.2169 -122.4522 288° West 237 273 6,400 2,340 Climbing Oakland Center
04:00PM 38.2619 -122.5192 311° West 267 307 8,500 1,800 Climbing Oakland Center
04:01PM 38.4769 -121.3270 57° Northeast  Level Estimated
04:01PM 38.3358 -122.4761 25° Northeast 307 353 10,200  Level Oakland Center
04:02PM 38.5201 -121.1674 55° Northeast  Level Estimated
04:02PM 38.3814 -122.3431 66° East 348 400 12,100  Level Oakland Center
04:03PM 38.4325 -122.2306 60° Northeast 364 419 14,500 2,100 Climbing Oakland Center
04:04PM 38.4836 -122.1161 60° Northeast 369 425 16,500 1,680 Climbing Oakland Center
04:05PM 38.5361 -121.9975 60° Northeast 380 437 18,000 1,620 Climbing Oakland Center
04:06PM 38.5892 -121.8744 61° Northeast 392 451 19,900 1,560 Climbing Oakland Center
04:07PM 38.6444 -121.7497 60° Northeast 398 458 21,300 1,380 Climbing Oakland Center
04:08PM 38.7017 -121.6189 61° Northeast 409 471 22,800 1,320 Climbing Oakland Center
04:09PM 38.7611 -121.4817 61° Northeast 429 494 24,100 1,320 Climbing Oakland Center
04:10PM 38.8219 -121.3400 61° Northeast 445 512 25,600 1,440 Climbing Oakland Center
04:11PM 38.8847 -121.1953 61° Northeast 456 525 27,100 1,560 Climbing Oakland Center
04:12PM 38.9600 -121.0203 61° Northeast 463 533 28,900 1,500 Climbing Oakland Center
04:13PM 39.0233 -120.8700 61° Northeast 473 544 30,200 1,260 Climbing Oakland Center
04:14PM 39.0883 -120.7169 61° Northeast 485 558 31,500 1,260 Climbing Oakland Center
04:15PM 39.1542 -120.5600 62° Northeast 495 570 32,800 1,140 Climbing Oakland Center
04:16PM 39.2206 -120.4022 61° Northeast 501 577 33,900 1,200 Climbing Oakland Center
04:17PM 39.2886 -120.2408 61° Northeast 509 586 35,300 1,380 Climbing Oakland Center
04:18PM 39.3631 -120.0658 61° Northeast 516 594 36,800 1,380 Climbing Oakland Center
04:19PM 39.4286 -119.9028 62° Northeast 512 589 38,200 1,080 Climbing Oakland Center
04:20PM 39.4953 -119.7408 62° Northeast 513 590 39,100 900 Climbing Oakland Center
04:22PM 39.5714 -119.5814 58° Northeast 516 594 40,100 900 Climbing Oakland Center
04:23PM 39.6572 -119.4308 53° Northeast 518 596 41,000 780 Climbing Oakland Center
04:24PM 39.7408 -119.2781 55° Northeast 518 596 41,800 660 Climbing Oakland Center
04:25PM 39.8419 -119.0969 54° Northeast 513 590 42,400 480 Climbing Oakland Center
04:26PM 39.9253 -118.9442 55° Northeast 512 589 42,900 480 Climbing Oakland Center
04:27PM 40.0094 -118.7919 54° Northeast 513 590 43,400 480 Climbing Oakland Center
04:28PM 40.0911 -118.6386 55° Northeast 512 589 43,900 420 Climbing Oakland Center
04:29PM 40.1544 -118.4747 63° Northeast 505 581 44,300 360 Climbing Oakland Center
04:29PM 40.1867 -118.3536 71° East 507 583 44,500 240 Climbing Salt Lake Center
04:30PM 40.2331 -118.1878 70° East 507 583 44,700 180 Climbing Salt Lake Center
04:31PM 40.2772 -118.0222 71° East 504 580 44,900 120 Climbing Salt Lake Center
04:32PM 40.3289 -117.8294 71° East 502 578 45,000  Climbing Salt Lake Center
04:33PM 40.3731 -117.6628 71° East 504 580 45,000  Level Salt Lake Center
04:34PM 40.4258 -117.4694 70° East 503 579 45,000  Level Salt Lake Center
04:36PM 40.4697 -117.3008 71° East 506 582 45,000  Level Salt Lake Center
04:37PM 40.5231 -117.1019 71° East 507 583 45,000  Level Salt Lake Center
04:38PM 40.5686 -116.9317 71° East 510 587 45,000  Level Salt Lake Center
04:39PM 40.6139 -116.7608 71° East 510 587 45,000  Level Salt Lake Center
04:40PM 40.6667 -116.5631 71° East 510 587 45,000  Level Salt Lake Center
04:41PM 40.7117 -116.3947 71° East 508 585 45,000  Level Salt Lake Center
04:42PM 40.7575 -116.2261 70° East 510 587 45,000  Level Salt Lake Center
04:43PM 40.8089 -116.0261 71° East 514 592 45,000  Level Salt Lake Center
04:44PM 40.8525 -115.8564 71° East 512 589 45,000  Level Salt Lake Center
04:45PM 40.9044 -115.6583 71° East 511 588 45,000  Level Salt Lake Center
04:46PM 40.9483 -115.4883 71° East 512 589 45,000  Level Salt Lake Center
04:47PM 41.0006 -115.2903 71° East 510 587 45,000  Level Salt Lake Center
04:48PM 41.0447 -115.1208 71° East 510 587 45,000  Level Salt Lake Center
04:49PM 41.0892 -114.9514 71° East 508 585 45,000  Level Salt Lake Center
04:50PM 41.1364 -114.7572 72° East 510 587 45,000  Level Salt Lake Center
04:51PM 41.1817 -114.5794 71° East 509 586 45,000  Level Salt Lake Center
04:52PM 41.2253 -114.4014 72° East 509 586 45,000  Level Salt Lake Center
04:53PM 41.2700 -114.2222 72° East 511 588 45,000  Level Salt Lake Center
04:54PM 41.3219 -114.0067 72° East 511 588 45,000  Level Salt Lake Center
04:55PM 41.3625 -113.8261 73° East 511 588 45,000  Level Salt Lake Center
04:56PM 41.3767 -113.6367 84° East 513 590 45,000  Level Salt Lake Center
04:57PM 41.3881 -113.4481 85° East 513 590 45,000  Level Salt Lake Center
04:58PM 41.4008 -113.2575 85° East 517 595 45,000  Level Salt Lake Center
04:59PM 41.4122 -113.0672 85° East 516 594 45,000  Level Salt Lake Center
05:00PM 41.4242 -112.8767 85° East 516 594 45,000  Level Salt Lake Center
05:01PM 41.4378 -112.6478 85° East 516 594 45,000  Level Salt Lake Center
05:02PM 41.4478 -112.4594 86° East 511 588 45,000  Level Salt Lake Center
05:03PM 41.4592 -112.2678 85° East 515 593 45,000  Level Salt Lake Center
05:04PM 41.4686 -112.0764 86° East 515 593 45,000  Level Salt Lake Center
05:05PM 41.4794 -111.8861 86° East 513 590 45,000  Level Salt Lake Center
05:06PM 41.4886 -111.6950 86° East 512 589 45,000  Level Salt Lake Center
05:07PM 41.4978 -111.5039 86° East 513 590 45,000  Level Salt Lake Center
05:08PM 41.5072 -111.3139 86° East 513 590 45,000  Level Salt Lake Center
05:09PM 41.5142 -111.1253 87° East 509 586 45,000  Level Salt Lake Center
05:11PM 41.5231 -110.9244 87° East 510 587 45,000  Level Salt Lake Center
05:12PM 41.5319 -110.7133 87° East 510 587 45,000  Level Salt Lake Center
05:13PM 41.5394 -110.5314 87° East 512 589 45,000  Level Salt Lake Center
05:14PM 41.5478 -110.3214 87° East 510 587 45,000  Level Salt Lake Center
05:15PM 41.5531 -110.1422 88° East 507 583 45,000  Level Salt Lake Center
05:16PM 41.5622 -109.9317 87° East 509 586 45,000  Level Salt Lake Center
05:17PM 41.5678 -109.7506 88° East 509 586 45,000  Level Salt Lake Center
05:18PM 41.5736 -109.5694 87° East 510 587 45,000  Level Salt Lake Center
05:19PM 41.5808 -109.3558 87° East 513 590 45,000  Level Salt Lake Center
05:20PM 41.5867 -109.1706 88° East 514 592 45,000  Level Salt Lake Center
05:21PM 41.5933 -108.9842 87° East 515 593 45,000  Level Salt Lake Center
05:22PM 41.6092 -108.7728 84° East 509 586 45,000  Level Salt Lake Center
05:23PM 41.6231 -108.5928 84° East 508 585 45,000  Level Salt Lake Center
05:24PM 41.6381 -108.3803 85° East 514 592 45,000  Level Salt Lake Center
05:25PM 41.6508 -108.1986 85° East 514 592 45,000  Level Salt Lake Center
05:26PM 41.6669 -107.9881 84° East 511 588 45,000  Level Salt Lake Center
05:27PM 41.6794 -107.8050 85° East 511 588 45,000  Level Denver Center
05:28PM 41.6931 -107.5931 85° East 512 589 45,000  Level Denver Center
05:29PM 41.7050 -107.4108 85° East 513 590 45,000  Level Denver Center
05:30PM 41.7189 -107.1992 85° East 511 588 45,000  Level Denver Center
05:31PM 41.7306 -107.0178 85° East 511 588 45,000  Level Denver Center
05:32PM 41.7403 -106.8372 86° East 509 586 45,000  Level Denver Center
05:33PM 41.7533 -106.6292 85° East 505 581 45,000  Level Denver Center
05:34PM 41.7650 -106.4417 85° East 504 580 45,000  Level Denver Center
05:35PM 41.7742 -106.2331 87° East 504 580 45,000  Level Denver Center
05:36PM 41.7842 -106.0544 86° East 504 580 45,000  Level Denver Center
05:37PM 41.7958 -105.8467 86° East 502 578 45,000  Level Denver Center
05:38PM 41.8050 -105.6694 86° East 501 577 45,000  Level Denver Center
05:39PM 41.8139 -105.4906 86° East 502 578 45,000  Level Denver Center
05:40PM 41.8231 -105.2825 87° East 502 578 45,000  Level Denver Center
05:41PM 41.8322 -105.1031 86° East 505 581 45,000  Level Denver Center
05:43PM 41.8400 -104.8944 87° East 504 580 45,000  Level Denver Center
05:44PM 41.8486 -104.7139 86° East 507 583 45,000  Level Denver Center
05:45PM 41.8567 -104.5061 87° East 504 580 45,000  Level Denver Center
05:46PM 41.8633 -104.3289 87° East 502 578 45,000  Level Denver Center
05:47PM 41.8711 -104.1217 87° East 500 575 45,000  Level Denver Center
05:48PM 41.8778 -103.9428 87° East 502 578 45,000  Level Denver Center
05:49PM 41.8853 -103.7353 87° East 502 578 45,000  Level Denver Center
05:50PM 41.8906 -103.5578 88° East 499 574 45,000  Level Denver Center
05:51PM 41.9111 -103.3533 82° East 497 572 45,000  Level Denver Center
05:52PM 41.9350 -103.1808 79° East 495 570 45,000  Level Denver Center
05:53PM 41.9639 -102.9775 79° East 496 571 45,000  Level Denver Center
05:54PM 41.9872 -102.8036 80° East 495 570 45,000  Level Denver Center
05:55PM 42.0150 -102.6000 80° East 497 572 45,000  Level Denver Center
05:56PM 42.0386 -102.4256 80° East 497 572 45,000  Level Denver Center
05:57PM 42.0644 -102.2200 80° East 499 574 45,000  Level Denver Center
05:58PM 42.0911 -102.0358 79° East 503 579 45,000  Level Denver Center
05:59PM 42.1131 -101.8603 80° East 497 572 45,000  Level Denver Center
06:00PM 42.1383 -101.6558 80° East 496 571 45,000  Level Denver Center
06:01PM 42.1608 -101.4808 80° East 494 568 45,000  Level Denver Center
06:02PM 42.1856 -101.2733 81° East 501 577 45,000  Level Denver Center
06:03PM 42.2069 -101.0969 81° East 499 574 45,000  Level Denver Center
06:04PM 42.2308 -100.8903 81° East 497 572 45,000  Level Denver Center
06:05PM 42.2522 -100.7131 81° East 500 575 45,000  Level Denver Center
06:06PM 42.2756 -100.5044 81° East 501 577 45,000  Level Denver Center
06:07PM 42.2972 -100.3278 81° East 500 575 45,000  Level Denver Center
06:08PM 42.3197 -100.1186 82° East 502 578 45,000  Level Denver Center
06:09PM 42.3403 -99.9381 81° East 506 582 45,000  Level Denver Center
06:10PM 42.3600 -99.7567 82° East 508 585 45,000  Level Denver Center
06:11PM 42.3783 -99.5942 81° East 510 587 45,000  Level Minneapolis Center
06:12PM 42.3969 -99.4047 82° East 509 586 45,000  Level Minneapolis Center
06:13PM 42.4172 -99.2125 82° East 512 589 45,000  Level Minneapolis Center
06:14PM 42.4375 -99.0203 82° East 515 593 45,000  Level Minneapolis Center
06:15PM 42.4564 -98.8264 82° East 517 595 45,000  Level Minneapolis Center
06:16PM 42.4758 -98.5928 83° East 517 595 45,000  Level Minneapolis Center
06:17PM 42.4847 -98.3989 86° East 516 594 45,000  Level Minneapolis Center
06:18PM 42.4944 -98.2067 86° East 512 589 45,000  Level Minneapolis Center
06:19PM 42.5031 -98.0169 86° East 507 583 45,000  Level Minneapolis Center
06:21PM 42.5131 -97.8092 86° East 507 583 45,000  Level Minneapolis Center
06:22PM 42.5206 -97.6167 87° East 510 587 45,000  Level Minneapolis Center
06:23PM 42.5281 -97.4228 87° East 513 590 45,000  Level Minneapolis Center
06:24PM 42.5358 -97.2283 87° East 515 593 45,000  Level Minneapolis Center
06:25PM 42.5431 -97.0347 87° East 515 593 45,000  Level Minneapolis Center
06:26PM 42.5503 -96.8425 87° East 513 590 45,000  Level Minneapolis Center
06:27PM 42.5575 -96.6094 88° East 513 590 45,000  Level Minneapolis Center
06:28PM 42.5642 -96.4169 87° East 511 588 45,000  Level Minneapolis Center
06:29PM 42.5703 -96.2219 87° East 513 590 45,000  Level Minneapolis Center
06:30PM 42.5758 -96.0269 88° East 516 594 45,000  Level Minneapolis Center
06:31PM 42.5806 -95.8328 88° East 514 592 45,000  Level Minneapolis Center
06:32PM 42.5858 -95.6375 88° East 517 595 45,000  Level Minneapolis Center
06:33PM 42.5906 -95.4400 88° East 520 598 45,000  Level Minneapolis Center
06:34PM 42.5950 -95.2044 88° East 519 597 45,000  Level Minneapolis Center
06:35PM 42.5992 -95.0094 88° East 518 596 45,000  Level Minneapolis Center
06:36PM 42.6022 -94.8139 89° East 518 596 45,000  Level Minneapolis Center
06:37PM 42.6044 -94.6192 89° East 516 594 45,000  Level Minneapolis Center
06:38PM 42.6061 -94.4367 89° East 511 588 45,000  Level Minneapolis Center
06:39PM 42.6075 -94.2092 89° East 506 582 45,000  Level Minneapolis Center
06:40PM 42.5981 -94.0189 94° East 508 585 45,000  Level Minneapolis Center
06:41PM 42.5883 -93.8303 94° East 506 582 45,000  Level Minneapolis Center
06:42PM 42.5800 -93.6428 93° East 504 580 45,000  Level Minneapolis Center
06:43PM 42.5708 -93.4553 94° East 503 579 45,000  Level Minneapolis Center
06:44PM 42.5600 -93.2286 94° East 506 582 45,000  Level Minneapolis Center
06:45PM 42.5503 -93.0419 94° East 503 579 45,000  Level Minneapolis Center
06:46PM 42.5394 -92.8544 94° East 504 580 45,000  Level Minneapolis Center
06:47PM 42.5292 -92.6681 94° East 502 578 45,000  Level Minneapolis Center
06:48PM 42.5181 -92.4811 95° East 503 579 45,000  Level Minneapolis Center
06:50PM 42.5050 -92.2536 94° East 508 585 45,000  Level Minneapolis Center
06:51PM 42.4933 -92.0672 95° East 506 582 45,000  Level Minneapolis Center
06:52PM 42.4819 -91.8811 95° East 504 580 45,000  Level Minneapolis Center
06:53PM 42.4689 -91.6969 95° East 503 579 45,000  Level Minneapolis Center
06:54PM 42.4542 -91.4747 95° East 504 580 45,000  Level Minneapolis Center
06:55PM 42.4419 -91.2883 95° East 506 582 45,000  Level Minneapolis Center
06:56PM 42.4286 -91.0997 95° East 508 585 45,000  Level Minneapolis Center
06:57PM 42.4092 -90.8369 96° East 510 587 45,000  Level Chicago Center
06:58PM 42.3944 -90.6117 95° East 508 585 45,000  Level Chicago Center
06:59PM 42.3842 -90.4217 94° East 510 587 45,000  Level Chicago Center
07:00PM 42.3739 -90.2331 94° East 511 588 45,000  Level Chicago Center
07:01PM 42.3628 -90.0439 94° East 509 586 45,000  Level Chicago Center
07:02PM 42.3508 -89.8336 94° East 515 593 45,000  Level Chicago Center
07:03PM 42.3386 -89.6428 95° East 514 592 45,000  Level Chicago Center
07:04PM 42.3247 -89.4125 95° East 514 592 45,000  Level Chicago Center
07:05PM 42.3122 -89.2200 95° East 516 594 45,000  Level Chicago Center
07:06PM 42.3000 -89.0303 95° East 513 590 45,000  Level Chicago Center
07:07PM 42.2856 -88.8311 96° East 519 597 45,000  Level Chicago Center
07:09PM 42.2775 -88.6361 93° East 522 601 45,000  Level Chicago Center
07:10PM 42.2836 -88.4411 88° East 523 602 45,000  Level Chicago Center
07:11PM 42.2872 -88.2450 89° East 523 602 45,000  Level Chicago Center
07:12PM 42.2878 -88.0075 90° East 525 604 45,000  Level Chicago Center
07:13PM 42.2883 -87.8106 90° East 525 604 45,000  Level Chicago Center
07:14PM 42.2875 -87.6189 90° East 514 592 45,000  Level Chicago Center
07:15PM 42.2881 -87.4244 90° East 518 596 45,000  Level Chicago Center
07:16PM 42.2872 -87.2297 90° East 518 596 45,000  Level Chicago Center
07:17PM 42.2872 -87.0358 90° East 519 597 45,000  Level Chicago Center
07:18PM 42.2861 -86.8039 90° East 518 596 45,000  Level Chicago Center
07:19PM 42.2828 -86.6047 91° East 522 601 45,000  Level Chicago Center
07:20PM 42.2803 -86.4078 91° East 525 604 45,000  Level Chicago Center
07:21PM 42.2781 -86.2089 91° East 529 609 45,000  Level Chicago Center
07:22PM 42.2750 -86.0108 91° East 529 609 45,000  Level Chicago Center
07:23PM 42.2717 -85.7911 91° East 527 606 45,000  Level Chicago Center
07:24PM 42.2678 -85.5936 91° East 530 610 45,000  Level Chicago Center
07:25PM 42.2653 -85.3969 91° East 529 609 45,000  Level Chicago Center
07:26PM 42.2614 -85.1992 91° East 532 612 45,000  Level Chicago Center
07:27PM 42.2558 -84.9636 92° East 530 610 45,000  Level Chicago Center
07:28PM 42.2511 -84.7667 92° East 529 609 45,000  Level Chicago Center
07:29PM 42.2461 -84.5692 92° East 529 609 45,000  Level Chicago Center
07:30PM 42.2408 -84.3733 92° East 526 605 45,000  Level Chicago Center
07:31PM 42.2353 -84.2008 92° East 524 603 45,000  Level Cleveland Center
07:32PM 42.2281 -84.0075 93° East 519 597 45,000  Level Cleveland Center
07:33PM 42.2214 -83.8128 93° East 522 601 45,000  Level Cleveland Center
07:34PM 42.2147 -83.6200 93° East 522 601 45,000  Level Cleveland Center
07:35PM 42.2083 -83.4031 92° East 532 612 45,000  Level Cleveland Center
07:36PM 42.1983 -83.2000 94° East 527 606 45,000  Level Cleveland Center
07:37PM 42.1911 -83.0039 93° East 528 608 45,000  Level Cleveland Center
07:38PM 42.1831 -82.8067 93° East 529 609 45,000  Level Cleveland Center
07:39PM 42.1742 -82.6103 93° East 527 606 45,000  Level Cleveland Center
07:40PM 42.1647 -82.3750 93° East 527 606 45,000  Level Cleveland Center
07:41PM 42.1547 -82.1797 94° East 525 604 45,000  Level Cleveland Center
07:42PM 42.1439 -81.9772 94° East 528 608 45,000  Level Cleveland Center
07:43PM 42.1350 -81.7769 93° East 529 609 45,000  Level Cleveland Center
07:44PM 42.1239 -81.5761 94° East 530 610 45,000  Level Cleveland Center
07:46PM 42.1125 -81.3753 94° East 531 611 45,000  Level Cleveland Center
07:47PM 42.1017 -81.1736 94° East 533 613 45,000  Level Cleveland Center
07:48PM 42.0903 -80.9719 94° East 534 615 45,000  Level Cleveland Center
07:49PM 42.0778 -80.7708 95° East 534 615 45,000  Level Cleveland Center
07:50PM 42.0642 -80.5350 94° East 536 617 45,000  Level Cleveland Center
07:51PM 42.0519 -80.3358 95° East 530 610 45,000  Level Cleveland Center
07:52PM 42.0392 -80.1381 95° East 528 608 45,000  Level Cleveland Center
07:53PM 42.0253 -79.9275 95° East 528 608 45,000  Level Cleveland Center
07:54PM 42.0108 -79.7358 96° East 521 600 45,000  Level Cleveland Center
07:55PM 41.9981 -79.5406 95° East 526 605 45,000  Level Cleveland Center
07:56PM 41.9836 -79.3442 96° East 529 609 45,000  Level Cleveland Center
07:57PM 41.9700 -79.1494 95° East 528 608 45,000  Level Cleveland Center
07:58PM 41.9514 -78.9178 96° East 523 602 45,000  Level Cleveland Center
07:59PM 41.9372 -78.7256 96° East 520 598 45,000 -480 Level Cleveland Center
08:00PM 41.9208 -78.5314 96° East 523 602 44,100 -1,800 Descending Cleveland Center
08:01PM 41.9058 -78.3375 96° East 525 604 41,300 -2,760 Descending Cleveland Center
08:02PM 41.8892 -78.1400 96° East 530 610 38,400 -2,880 Descending Cleveland Center
08:03PM 41.8719 -77.9247 96° East 539 620 35,400 -1,680 Descending Cleveland Center
08:04PM 41.8292 -77.7106 105° East 532 612 35,000 -240 Descending Cleveland Center
08:05PM 41.7775 -77.5206 110° East 542 624 35,000 -60 Level Cleveland Center
08:06PM 41.7253 -77.3231 109° East 537 618 34,900 -480 Descending Cleveland Center
08:07PM 41.6767 -77.1419 110° East 524 603 34,100 -900 Descending Cleveland Center
08:08PM 41.6275 -76.9631 110° East 518 596 33,100 -1,080 Descending Cleveland Center
08:09PM 41.5669 -76.7433 110° East 521 600 31,900 -1,200 Descending New York Center
08:10PM 41.5231 -76.5786 110° East 521 600 30,600 -1,620 Descending New York Center
08:11PM 41.4719 -76.3886 110° East 526 605 28,700 -2,460 Descending New York Center
08:12PM 41.4128 -76.1789 111° Southeast 531 611 25,700 -2,880 Descending New York Center
08:13PM 41.3622 -76.0092 112° Southeast 524 603 23,000 -2,700 Descending New York Center
08:14PM 41.3153 -75.8425 111° Southeast 499 574 20,300 -2,520 Descending New York Center
08:15PM 41.2661 -75.6758 111° Southeast 486 559 18,000 -1,560 Descending New York Center
08:16PM 41.2200 -75.5292 113° Southeast 454 522 17,200 -1,800 Descending New York Center
08:17PM 41.1808 -75.4106 114° Southeast 403 464 14,500 -2,700 Descending New York Center
08:18PM 41.1358 -75.2808 115° Southeast 391 450 11,900 -2,520 Descending New York Center
08:19PM 41.0964 -75.1653 114° Southeast 333 383 9,500 -2,100 Descending New York Center
08:20PM 41.0667 -75.0725 113° Southeast 293 337 7,700 -1,800 Descending New York Center
08:21PM 41.0325 -74.9767 115° Southeast 282 325 6,000 -900 Descending New York Center
08:22PM 41.0042 -74.8953 115° Southeast 275 316 6,000 -960 Level New York Center
08:23PM 40.9975 -74.7878 95° East 265 305 4,100 -1,500 Descending New York Center
08:24PM 41.0025 -74.7000 86° East 265 305 3,000 -600 Descending New York Center
08:25PM 41.0053 -74.6122 88° East 235 270 3,000  Level New York Center
08:26PM 41.0078 -74.5408 87° East 215 247 3,000  Level New York Center
08:27PM 41.0122 -74.4586 86° East 210 242 3,000  Level New York Center
08:29PM 41.0167 -74.3500 87° East 220 253 3,000 -300 Level New York TRACON
08:30PM 41.0167 -74.2667 90° East 212 244 2,300 -540 Descending New York TRACON
08:31PM 41.0167 -74.2000 90° East 200 230 2,000 -180 Descending New York TRACON
08:32PM 41.0167 -74.1167 90° East 204 235 2,000  Level New York TRACON
08:33PM 40.9833 -74.0667 131° Southeast 181 208 2,000 -60 Level New York TRACON
08:34PM 40.9500 -74.0500 159° South 150 173 1,900 -360 Descending New York TRACON
08:35PM 40.9167 -74.0500 180° South 125 144 1,300 -660 Descending New York TRACON
08:36PM 40.8833 -74.0500 180° South 127 146 600 -720 Descending New York TRACON
08:38PM 40.8500 -74.0500 175° South  Level FlightAware Approximate
08:45PM 40.8501 -74.0608 175° South  Level Estimated